createdAt,value
2017-10-28T00:01:27.761Z,97.92
2017-10-28T00:03:55.343Z,98.43
2017-10-28T00:06:23.008Z,98.21
2017-10-28T00:08:50.742Z,98.29
2017-10-28T00:11:18.433Z,98.41
2017-10-28T00:13:45.952Z,98.70
2017-10-28T00:16:13.431Z,98.34
2017-10-28T00:18:40.889Z,98.54
2017-10-28T00:21:08.738Z,98.67
2017-10-28T00:23:36.322Z,98.79
2017-10-28T00:26:03.784Z,98.42
2017-10-28T00:28:31.311Z,98.52
2017-10-28T00:31:04.339Z,98.76
2017-10-28T00:33:37.292Z,98.90
2017-10-28T00:38:46.949Z,98.70
2017-10-28T00:41:14.592Z,98.95
2017-10-28T00:43:42.164Z,98.04
2017-10-28T00:46:09.661Z,99.10
2017-10-28T00:48:37.174Z,98.36
2017-10-28T00:51:04.703Z,98.35
2017-10-28T00:53:32.212Z,98.27
2017-10-28T00:55:59.657Z,98.43
2017-10-28T00:58:27.233Z,98.49
2017-10-28T01:00:55.100Z,98.39
2017-10-28T01:03:22.556Z,98.22
2017-10-28T01:05:50.032Z,98.33
2017-10-28T01:08:17.618Z,98.61
2017-10-28T01:10:45.131Z,98.16
2017-10-28T01:13:12.697Z,98.54
2017-10-28T01:15:40.230Z,98.42
2017-10-28T01:18:07.850Z,98.35
2017-10-28T01:20:35.326Z,98.21
2017-10-28T01:23:02.849Z,98.44
2017-10-28T01:25:30.413Z,98.45
2017-10-28T01:27:57.924Z,98.46
2017-10-28T01:30:25.443Z,98.66
2017-10-28T01:32:52.923Z,98.70
2017-10-28T01:35:20.539Z,98.73
2017-10-28T01:37:48.040Z,98.66
2017-10-28T01:40:15.596Z,98.66
2017-10-28T01:42:43.197Z,98.59
2017-10-28T01:45:10.853Z,98.81
2017-10-28T01:47:38.337Z,98.79
2017-10-28T01:50:05.833Z,98.90
2017-10-28T01:52:33.985Z,98.74
2017-10-28T01:55:01.636Z,98.93
2017-10-28T01:57:29.140Z,99.24
2017-10-28T01:59:56.712Z,99.11
2017-10-28T02:02:24.327Z,99.10
2017-10-28T02:04:51.816Z,99.04
2017-10-28T02:07:19.299Z,99.02
2017-10-28T02:09:46.804Z,98.87
2017-10-28T02:12:14.221Z,99.17
2017-10-28T02:14:41.812Z,99.00
2017-10-28T02:17:09.322Z,98.93
2017-10-28T02:19:37.283Z,98.92
2017-10-28T02:22:05.082Z,98.89
2017-10-28T02:24:32.685Z,98.84
2017-10-28T02:27:00.240Z,98.81
2017-10-28T02:29:28.104Z,98.85
2017-10-28T02:31:55.713Z,99.07
2017-10-28T02:34:23.153Z,99.11
2017-10-28T02:36:50.710Z,98.77
2017-10-28T02:39:18.351Z,98.79
2017-10-28T02:41:45.853Z,98.82
2017-10-28T02:44:13.596Z,98.87
2017-10-28T02:46:41.136Z,99.02
2017-10-28T02:49:08.691Z,98.67
2017-10-28T02:51:36.302Z,98.58
2017-10-28T02:54:03.921Z,98.44
2017-10-28T02:56:31.573Z,98.55
2017-10-28T02:58:59.254Z,98.53
2017-10-28T03:01:26.833Z,98.78
2017-10-28T03:03:54.272Z,98.82
2017-10-28T03:06:21.900Z,99.10
2017-10-28T03:08:49.386Z,98.98
2017-10-28T03:11:16.833Z,99.13
2017-10-28T03:13:44.497Z,99.18
2017-10-28T03:16:11.983Z,99.07
2017-10-28T03:18:39.407Z,99.36
2017-10-28T03:21:06.985Z,99.44
2017-10-28T03:23:34.463Z,99.58
2017-10-28T03:26:02.057Z,99.54
2017-10-28T03:28:29.676Z,99.43
2017-10-28T03:30:57.128Z,99.42
2017-10-28T03:33:24.554Z,99.45
2017-10-28T03:35:52.123Z,99.57
2017-10-28T03:38:19.665Z,99.17
2017-10-28T03:40:47.171Z,99.22
2017-10-28T03:43:14.690Z,99.15
2017-10-28T03:45:42.190Z,99.22
2017-10-28T03:48:09.696Z,99.19
2017-10-28T03:50:37.285Z,99.20
2017-10-28T03:53:04.775Z,99.09
2017-10-28T03:55:32.407Z,99.23
2017-10-28T03:58:00.167Z,99.13
2017-10-28T04:00:27.670Z,99.39
2017-10-28T04:02:55.314Z,99.06
2017-10-28T04:05:22.875Z,99.37
2017-10-28T04:07:50.529Z,99.24
2017-10-28T04:10:18.091Z,99.04
2017-10-28T04:12:45.799Z,99.02
2017-10-28T04:15:13.805Z,98.91
2017-10-28T04:17:41.469Z,98.98
2017-10-28T04:20:09.152Z,98.93
2017-10-28T04:22:36.804Z,98.73
2017-10-28T04:25:04.429Z,98.92
2017-10-28T04:27:31.925Z,99.00
2017-10-28T04:29:59.586Z,99.23
2017-10-28T04:32:27.283Z,99.53
2017-10-28T04:34:54.863Z,99.75
2017-10-28T04:37:22.506Z,99.54
2017-10-28T04:39:50.055Z,99.69
2017-10-28T04:42:18.216Z,99.87
2017-10-28T04:44:45.781Z,99.54
2017-10-28T04:47:13.444Z,99.69
2017-10-28T04:49:41.000Z,99.83
2017-10-28T04:52:08.623Z,99.24
2017-10-28T04:54:36.251Z,99.23
2017-10-28T04:57:04.172Z,99.45
2017-10-28T04:59:31.790Z,99.36
2017-10-28T05:01:59.284Z,99.13
2017-10-28T05:04:27.037Z,99.04
2017-10-28T05:06:54.597Z,99.21
2017-10-28T05:09:22.234Z,99.23
2017-10-28T05:11:49.947Z,99.16
2017-10-28T05:14:17.546Z,99.09
2017-10-28T05:16:45.190Z,99.39
2017-10-28T05:19:12.691Z,99.55
2017-10-28T05:21:40.356Z,99.19
2017-10-28T05:24:07.975Z,98.85
2017-10-28T05:26:35.595Z,99.16
2017-10-28T05:29:03.169Z,99.00
2017-10-28T05:31:30.651Z,99.07
2017-10-28T05:33:58.267Z,99.38
2017-10-28T05:36:25.766Z,99.44
2017-10-28T05:38:53.305Z,98.98
2017-10-28T05:41:21.088Z,99.08
2017-10-28T05:43:48.668Z,98.72
2017-10-28T05:46:16.279Z,98.83
2017-10-28T05:48:44.268Z,98.79
2017-10-28T05:51:11.848Z,98.86
2017-10-28T05:53:39.325Z,98.70
2017-10-28T05:56:07.350Z,98.87
2017-10-28T05:58:34.856Z,98.86
2017-10-28T06:01:02.321Z,98.70
2017-10-28T06:03:30.162Z,98.92
2017-10-28T06:05:57.619Z,98.92
2017-10-28T06:08:25.221Z,99.07
2017-10-28T06:10:52.765Z,99.08
2017-10-28T06:13:20.294Z,98.87
2017-10-28T06:15:47.916Z,99.15
2017-10-28T06:18:15.802Z,99.43
2017-10-28T06:20:43.324Z,99.51
2017-10-28T06:23:11.141Z,99.74
2017-10-28T06:25:38.668Z,99.68
2017-10-28T06:28:06.187Z,99.78
2017-10-28T06:30:33.771Z,99.59
2017-10-28T06:33:01.457Z,99.45
2017-10-28T06:35:29.077Z,99.18
2017-10-28T06:37:56.661Z,98.94
2017-10-28T06:40:24.181Z,98.50
2017-10-28T06:42:51.795Z,98.37
2017-10-28T06:45:19.359Z,98.06
2017-10-28T06:47:47.135Z,98.24
2017-10-28T06:50:14.655Z,98.43
2017-10-28T06:52:42.196Z,98.03
2017-10-28T06:55:09.912Z,97.37
2017-10-28T06:57:37.521Z,97.91
2017-10-28T07:00:05.099Z,97.75
2017-10-28T07:02:32.780Z,97.78
2017-10-28T07:05:00.494Z,98.28
2017-10-28T07:07:28.126Z,97.85
2017-10-28T07:09:55.663Z,97.36
2017-10-28T07:12:23.152Z,97.63
2017-10-28T07:14:52.603Z,97.45
2017-10-28T07:17:21.085Z,96.67
2017-10-28T07:19:48.596Z,96.68
2017-10-28T07:22:16.148Z,96.79
2017-10-28T07:24:43.716Z,96.87
2017-10-28T07:27:11.319Z,95.45
2017-10-28T07:29:39.110Z,95.69
2017-10-28T07:32:07.120Z,96.06
2017-10-28T07:34:34.572Z,95.68
2017-10-28T07:37:03.453Z,95.59
2017-10-28T07:39:31.058Z,95.74
2017-10-28T07:41:58.497Z,95.60
2017-10-28T07:44:26.006Z,95.60
2017-10-28T07:46:54.438Z,95.52
2017-10-28T07:49:21.907Z,95.53
2017-10-28T07:51:49.890Z,96.54
2017-10-28T07:54:17.534Z,96.24
2017-10-28T07:56:46.630Z,95.97
2017-10-28T07:59:14.419Z,96.50
2017-10-28T08:01:42.107Z,95.58
2017-10-28T08:04:15.220Z,96.35
2017-10-28T08:06:42.763Z,96.28
2017-10-28T08:09:13.627Z,96.18
2017-10-28T08:11:41.127Z,95.70
2017-10-28T08:14:09.065Z,95.67
2017-10-28T08:16:38.163Z,95.83
2017-10-28T08:19:15.358Z,95.61
2017-10-28T08:21:44.245Z,95.44
2017-10-28T08:24:11.828Z,95.14
2017-10-28T08:26:39.388Z,94.46
2017-10-28T08:29:10.021Z,94.21
2017-10-28T08:31:37.572Z,94.06
2017-10-28T08:34:08.142Z,92.89
2017-10-28T08:36:35.796Z,92.75
2017-10-28T08:39:03.295Z,92.71
2017-10-28T08:41:30.837Z,92.46
2017-10-28T08:43:58.504Z,92.21
2017-10-28T08:46:26.037Z,91.07
2017-10-28T08:48:53.552Z,91.21
2017-10-28T08:51:21.167Z,91.61
2017-10-28T08:53:48.647Z,90.67
2017-10-28T08:56:16.327Z,91.46
2017-10-28T08:58:46.710Z,91.07
2017-10-28T09:01:14.304Z,90.54
2017-10-28T09:03:41.990Z,90.15
2017-10-28T09:06:09.736Z,90.57
2017-10-28T09:08:37.342Z,90.49
2017-10-28T09:11:05.206Z,91.08
2017-10-28T09:13:32.658Z,90.57
2017-10-28T09:16:01.138Z,90.73
2017-10-28T09:18:29.258Z,91.33
2017-10-28T09:21:00.786Z,91.16
2017-10-28T09:23:28.313Z,91.38
2017-10-28T09:25:55.958Z,91.15
2017-10-28T09:28:23.717Z,89.00
2017-10-28T09:30:51.261Z,90.02
2017-10-28T09:33:18.795Z,89.49
2017-10-28T09:35:46.390Z,88.40
2017-10-28T09:38:13.954Z,87.79
2017-10-28T09:40:41.507Z,87.08
2017-10-28T09:43:09.911Z,87.40
2017-10-28T09:45:37.555Z,87.88
2017-10-28T09:48:05.220Z,87.36
2017-10-28T09:50:33.693Z,86.70
2017-10-28T09:53:01.403Z,86.90
2017-10-28T09:55:28.894Z,86.29
2017-10-28T09:57:56.400Z,87.49
2017-10-28T10:00:23.875Z,86.61
2017-10-28T10:02:51.714Z,87.06
2017-10-28T10:05:19.293Z,87.95
2017-10-28T10:07:46.982Z,86.97
2017-10-28T10:10:14.557Z,87.11
2017-10-28T10:12:42.286Z,86.48
2017-10-28T10:15:10.026Z,85.65
2017-10-28T10:17:37.602Z,86.31
2017-10-28T10:20:05.321Z,86.29
2017-10-28T10:22:32.847Z,85.70
2017-10-28T10:25:00.473Z,86.42
2017-10-28T10:27:27.922Z,85.47
2017-10-28T10:29:55.655Z,85.42
2017-10-28T10:32:23.173Z,84.50
2017-10-28T10:34:50.752Z,83.45
2017-10-28T10:37:18.298Z,83.22
2017-10-28T10:39:46.115Z,82.96
2017-10-28T10:42:13.721Z,83.25
2017-10-28T10:44:41.328Z,81.86
2017-10-28T10:47:08.942Z,81.32
2017-10-28T10:49:36.636Z,81.65
2017-10-28T10:52:04.289Z,81.49
2017-10-28T10:54:31.886Z,81.71
2017-10-28T10:56:59.554Z,79.20
2017-10-28T10:59:27.039Z,78.26
2017-10-28T11:01:54.668Z,79.26
2017-10-28T11:04:22.273Z,79.56
2017-10-28T11:06:49.996Z,80.24
2017-10-28T11:09:17.713Z,78.41
2017-10-28T11:11:45.220Z,77.29
2017-10-28T11:14:12.732Z,76.97
2017-10-28T11:16:40.377Z,75.67
2017-10-28T11:19:08.134Z,76.54
2017-10-28T11:21:40.533Z,76.89
2017-10-28T11:24:08.249Z,76.82
2017-10-28T11:26:35.873Z,76.50
2017-10-28T11:29:03.457Z,73.94
2017-10-28T11:31:30.921Z,73.77
2017-10-28T11:33:58.474Z,72.54
2017-10-28T11:36:26.060Z,72.62
2017-10-28T11:38:53.845Z,72.52
2017-10-28T11:41:21.437Z,73.97
2017-10-28T11:43:49.132Z,73.66
2017-10-28T11:46:17.621Z,73.84
2017-10-28T11:51:12.039Z,70.59
2017-10-28T11:53:39.525Z,69.66
2017-10-28T11:56:07.035Z,70.06
2017-10-28T11:58:34.738Z,65.53
2017-10-28T12:01:02.409Z,63.07
2017-10-28T12:03:30.062Z,67.61
2017-10-28T12:05:57.653Z,62.17
2017-10-28T12:08:25.197Z,60.10
2017-10-28T12:10:53.079Z,62.39
2017-10-28T12:13:20.714Z,57.93
2017-10-28T12:15:48.329Z,57.68
2017-10-28T12:18:17.775Z,57.17
2017-10-28T12:20:46.506Z,56.59
2017-10-28T12:23:14.982Z,57.33
2017-10-28T12:25:43.709Z,56.94
2017-10-28T12:28:11.230Z,58.00
2017-10-28T12:30:42.720Z,55.99
2017-10-28T12:33:10.228Z,56.66
2017-10-28T12:35:37.772Z,58.04
2017-10-28T12:38:05.227Z,59.13
2017-10-28T12:40:32.709Z,58.71
2017-10-28T12:43:01.610Z,59.61
2017-10-28T12:45:29.158Z,58.91
2017-10-28T12:47:56.963Z,59.66
2017-10-28T12:50:24.956Z,58.11
2017-10-28T12:52:52.567Z,57.16
2017-10-28T12:55:20.070Z,56.27
2017-10-28T12:57:48.189Z,56.10
2017-10-28T13:00:15.741Z,54.38
2017-10-28T13:02:43.419Z,53.64
2017-10-28T13:05:11.028Z,54.57
2017-10-28T13:07:38.617Z,54.61
2017-10-28T13:10:06.191Z,55.04
2017-10-28T13:12:33.855Z,55.13
2017-10-28T13:15:01.500Z,53.08
2017-10-28T13:17:28.989Z,54.47
2017-10-28T13:19:56.519Z,54.41
2017-10-28T13:22:24.135Z,55.44
2017-10-28T13:24:51.641Z,55.40
2017-10-28T13:27:19.251Z,56.20
2017-10-28T13:29:46.877Z,56.61
2017-10-28T13:32:14.329Z,57.77
2017-10-28T13:34:41.918Z,57.99
2017-10-28T13:37:09.472Z,57.12
2017-10-28T13:39:37.705Z,58.22
2017-10-28T13:42:05.271Z,58.52
2017-10-28T13:44:32.756Z,58.38
2017-10-28T13:47:00.292Z,57.35
2017-10-28T13:49:28.790Z,57.36
2017-10-28T13:51:56.548Z,57.21
2017-10-28T13:54:24.033Z,57.63
2017-10-28T13:56:51.574Z,58.31
2017-10-28T13:59:19.981Z,57.95
2017-10-28T14:01:47.573Z,58.49
2017-10-28T14:04:16.506Z,58.32
2017-10-28T14:06:44.355Z,58.89
2017-10-28T14:09:15.145Z,59.05
2017-10-28T14:11:42.949Z,58.19
2017-10-28T14:14:12.389Z,58.98
2017-10-28T14:16:40.066Z,59.92
2017-10-28T14:19:11.504Z,59.72
2017-10-28T14:21:39.044Z,60.37
2017-10-28T14:24:06.697Z,60.49
2017-10-28T14:26:34.679Z,60.82
2017-10-28T14:29:02.425Z,60.77
2017-10-28T14:31:29.881Z,61.08
2017-10-28T14:33:57.776Z,61.77
2017-10-28T14:36:25.470Z,61.50
2017-10-28T14:38:53.508Z,62.25
2017-10-28T14:41:21.690Z,61.80
2017-10-28T14:43:49.249Z,62.71
2017-10-28T14:46:17.029Z,61.69
2017-10-28T14:48:45.400Z,62.71
2017-10-28T14:51:12.952Z,62.36
2017-10-28T14:53:41.648Z,63.22
2017-10-28T14:56:09.243Z,63.84
2017-10-28T14:58:37.518Z,63.26
2017-10-28T15:01:05.065Z,63.60
2017-10-28T15:03:32.888Z,63.00
2017-10-28T15:06:00.443Z,63.61
2017-10-28T15:08:27.967Z,64.33
2017-10-28T15:10:55.538Z,65.31
2017-10-28T15:13:23.195Z,64.44
2017-10-28T15:15:50.795Z,65.27
2017-10-28T15:18:18.471Z,65.26
2017-10-28T15:20:46.165Z,65.84
2017-10-28T15:23:14.081Z,67.37
2017-10-28T15:25:42.000Z,66.81
2017-10-28T15:28:09.646Z,67.36
2017-10-28T15:30:37.413Z,67.24
2017-10-28T15:33:04.905Z,68.58
2017-10-28T15:35:32.454Z,68.57
2017-10-28T15:37:59.961Z,68.92
2017-10-28T15:40:27.999Z,68.76
2017-10-28T15:42:55.776Z,69.49
2017-10-28T15:45:23.427Z,69.11
2017-10-28T15:47:51.088Z,70.15
2017-10-28T15:50:18.653Z,70.07
2017-10-28T15:52:46.283Z,70.44
2017-10-28T15:55:15.405Z,69.90
2017-10-28T15:57:42.933Z,70.07
2017-10-28T16:00:10.660Z,70.32
2017-10-28T16:02:38.792Z,70.47
2017-10-28T16:05:06.348Z,70.89
2017-10-28T16:07:33.780Z,71.02
2017-10-28T16:10:01.470Z,71.36
2017-10-28T16:12:29.049Z,71.54
2017-10-28T16:14:56.604Z,71.88
2017-10-28T16:17:24.095Z,71.77
2017-10-28T16:19:51.621Z,72.01
2017-10-28T16:22:19.050Z,72.13
2017-10-28T16:24:46.648Z,73.11
2017-10-28T16:27:14.104Z,74.37
2017-10-28T16:29:41.656Z,75.17
2017-10-28T16:32:09.306Z,75.94
2017-10-28T16:34:36.870Z,76.34
2017-10-28T16:37:04.417Z,76.88
2017-10-28T16:39:32.270Z,77.46
2017-10-28T16:41:59.812Z,78.55
2017-10-28T16:44:27.279Z,79.31
2017-10-28T16:46:54.744Z,80.26
2017-10-28T16:49:22.455Z,80.87
2017-10-28T16:51:49.963Z,81.11
2017-10-28T16:54:17.853Z,81.45
2017-10-28T16:56:45.382Z,81.79
2017-10-28T16:59:12.940Z,81.96
2017-10-28T17:01:40.538Z,82.06
2017-10-28T17:04:08.181Z,82.64
2017-10-28T17:06:35.701Z,82.33
2017-10-28T17:09:03.285Z,82.34
2017-10-28T17:11:30.777Z,82.36
2017-10-28T17:13:58.355Z,82.39
2017-10-28T17:16:26.295Z,82.45
2017-10-28T17:18:53.826Z,82.43
2017-10-28T17:21:21.392Z,82.01
2017-10-28T17:23:48.998Z,82.05
2017-10-28T17:26:16.688Z,81.66
2017-10-28T17:28:44.379Z,80.87
2017-10-28T17:31:12.054Z,80.04
2017-10-28T17:33:39.759Z,79.45
2017-10-28T17:36:07.194Z,78.44
2017-10-28T17:38:34.807Z,78.08
2017-10-28T17:41:02.403Z,77.80
2017-10-28T17:43:29.861Z,77.42
2017-10-28T17:45:57.496Z,77.24
2017-10-28T17:48:25.608Z,80.39
2017-10-28T17:50:53.134Z,81.67
2017-10-28T17:53:20.835Z,81.91
2017-10-28T17:55:48.511Z,82.36
2017-10-28T17:58:16.145Z,82.65
2017-10-28T18:00:43.891Z,83.23
2017-10-28T18:03:12.280Z,83.39
2017-10-28T18:05:40.014Z,83.96
2017-10-28T18:08:07.758Z,84.07
2017-10-28T18:10:35.597Z,84.27
2017-10-28T18:13:03.147Z,84.81
2017-10-28T18:15:30.883Z,84.88
2017-10-28T18:17:58.412Z,84.82
2017-10-28T18:20:26.082Z,84.93
2017-10-28T18:22:53.776Z,85.01
2017-10-28T18:25:21.307Z,85.09
2017-10-28T18:27:48.915Z,84.82
2017-10-28T18:30:16.937Z,84.73
2017-10-28T18:32:44.442Z,85.10
2017-10-28T18:35:12.029Z,85.43
2017-10-28T18:37:39.623Z,85.52
2017-10-28T18:40:07.739Z,85.53
2017-10-28T18:42:35.499Z,85.96
2017-10-28T18:45:03.139Z,86.04
2017-10-28T18:47:30.855Z,86.29
2017-10-28T18:49:58.988Z,86.38
2017-10-28T18:52:26.861Z,86.52
2017-10-28T18:54:54.635Z,86.43
2017-10-28T18:57:22.273Z,86.65
2017-10-28T18:59:49.971Z,86.88
2017-10-28T19:02:17.587Z,87.04
2017-10-28T19:04:45.308Z,87.16
2017-10-28T19:07:13.003Z,87.44
2017-10-28T19:09:40.526Z,87.72
2017-10-28T19:12:08.125Z,88.04
2017-10-28T19:14:35.790Z,88.16
2017-10-28T19:17:03.499Z,88.25
2017-10-28T19:19:31.367Z,88.33
2017-10-28T19:21:59.180Z,88.22
2017-10-28T19:24:26.848Z,88.32
2017-10-28T19:26:54.424Z,88.51
2017-10-28T19:29:21.974Z,88.30
2017-10-28T19:31:49.618Z,88.29
2017-10-28T19:34:17.266Z,88.51
2017-10-28T19:36:44.914Z,88.66
2017-10-28T19:39:12.431Z,89.04
2017-10-28T19:41:41.881Z,89.48
2017-10-28T19:44:09.680Z,89.90
2017-10-28T19:46:37.277Z,90.07
2017-10-28T19:49:05.119Z,90.08
2017-10-28T19:51:32.691Z,89.80
2017-10-28T19:54:00.286Z,89.73
2017-10-28T19:56:27.878Z,89.73
2017-10-28T19:58:56.092Z,89.41
2017-10-28T20:01:23.606Z,89.44
2017-10-28T20:03:51.906Z,89.65
2017-10-28T20:06:19.524Z,89.69
2017-10-28T20:08:47.027Z,89.53
2017-10-28T20:11:14.561Z,89.58
2017-10-28T20:13:42.161Z,89.66
2017-10-28T20:16:10.483Z,89.59
2017-10-28T20:18:38.252Z,89.73
2017-10-28T20:21:05.959Z,89.75
2017-10-28T20:23:33.497Z,89.82
2017-10-28T20:26:01.044Z,89.96
2017-10-28T20:28:29.021Z,89.79
2017-10-28T20:30:57.746Z,89.75
2017-10-28T20:33:25.503Z,90.04
2017-10-28T20:35:53.027Z,90.13
2017-10-28T20:38:20.783Z,90.17
2017-10-28T20:40:48.379Z,90.28
2017-10-28T20:43:15.948Z,90.14
2017-10-28T20:45:43.610Z,89.63
2017-10-28T20:48:11.336Z,89.39
2017-10-28T20:50:38.986Z,89.26
2017-10-28T20:53:06.973Z,89.19
2017-10-28T20:55:35.476Z,89.33
2017-10-28T20:58:03.049Z,89.33
2017-10-28T21:00:30.661Z,89.27
2017-10-28T21:02:58.189Z,89.07
2017-10-28T21:05:25.797Z,89.04
2017-10-28T21:07:53.372Z,89.16
2017-10-28T21:10:21.287Z,88.44
2017-10-28T21:12:49.148Z,88.82
2017-10-28T21:15:16.734Z,88.88
2017-10-28T21:17:45.309Z,88.82
2017-10-28T21:20:12.920Z,88.63
2017-10-28T21:22:40.556Z,88.17
2017-10-28T21:25:08.106Z,88.21
2017-10-28T21:27:39.194Z,88.18
2017-10-28T21:30:06.690Z,88.35
2017-10-28T21:32:34.172Z,88.44
2017-10-28T21:35:01.686Z,88.46
2017-10-28T21:37:29.174Z,87.70
2017-10-28T21:39:56.767Z,87.73
2017-10-28T21:42:24.534Z,87.59
2017-10-28T21:44:51.991Z,87.34
2017-10-28T21:47:19.504Z,87.55
2017-10-28T21:49:47.130Z,87.35
2017-10-28T21:52:14.686Z,87.55
2017-10-28T21:54:42.263Z,86.58
2017-10-28T21:57:09.730Z,85.41
2017-10-28T21:59:38.028Z,84.35
2017-10-28T22:02:05.682Z,84.93
2017-10-28T22:04:33.478Z,84.54
2017-10-28T22:07:00.965Z,83.22
2017-10-28T22:09:28.541Z,83.38
2017-10-28T22:11:56.166Z,84.68
2017-10-28T22:14:24.744Z,84.77
2017-10-28T22:16:52.286Z,85.14
2017-10-28T22:19:19.880Z,85.49
2017-10-28T22:21:47.389Z,80.52
2017-10-28T22:24:14.934Z,78.98
2017-10-28T22:26:42.409Z,79.06
2017-10-28T22:29:09.927Z,78.36
2017-10-28T22:31:37.432Z,77.04
2017-10-28T22:34:05.344Z,75.31
2017-10-28T22:36:32.812Z,75.71
2017-10-28T22:39:00.407Z,75.26
2017-10-28T22:41:27.961Z,75.20
2017-10-28T22:43:55.521Z,75.61
2017-10-28T22:46:23.194Z,75.70
2017-10-28T22:48:50.715Z,75.31
2017-10-28T22:51:18.341Z,74.34
2017-10-28T22:53:45.887Z,73.69
2017-10-28T22:56:13.396Z,74.10
2017-10-28T22:58:40.861Z,73.14
2017-10-28T23:01:08.415Z,73.42
2017-10-28T23:03:36.555Z,72.42
2017-10-28T23:06:04.163Z,70.58
2017-10-28T23:08:31.788Z,71.01
2017-10-28T23:10:59.534Z,70.92
2017-10-28T23:13:27.021Z,71.55
2017-10-28T23:15:54.541Z,70.87
2017-10-28T23:18:22.412Z,71.14
2017-10-28T23:20:50.016Z,71.00
2017-10-28T23:23:17.487Z,69.59
2017-10-28T23:25:45.180Z,71.13
2017-10-28T23:28:12.595Z,69.36
2017-10-28T23:30:40.146Z,69.32
2017-10-28T23:33:07.696Z,67.83
2017-10-28T23:35:35.263Z,68.22
2017-10-28T23:38:02.799Z,68.40
2017-10-28T23:40:30.480Z,68.16
2017-10-28T23:42:57.988Z,67.93
2017-10-28T23:45:25.525Z,68.20
2017-10-28T23:47:53.710Z,68.16
2017-10-28T23:50:21.284Z,68.21
2017-10-28T23:52:48.968Z,68.86
2017-10-28T23:55:16.445Z,68.57
2017-10-28T23:57:44.031Z,69.00
